Time;durP1;ratioP1;P1;durP2;ratioP2;P2;SDS_P1;SDS_P2;PMS_P1;PMS_P2;Temp;Humidity;BMP_temperature;BMP_pressure;BME280_temperature;BME280_humidity;BME280_pressure;Samples;Min_cycle;Max_cycle;Signal;HPM_P1;HPM_P2
2022/01/31 00:02:11;;;;;;;;;;;4.70;99.90;;;;;;5092067;28;19908;-56
2022/01/31 00:04:37;;;;;;;;;;;4.70;99.90;;;;;;5091684;28;19933;-56
2022/01/31 00:07:03;;;;;;;;;;;4.70;99.90;;;;;;5091271;28;20347;-56
2022/01/31 00:09:29;;;;;;;;;;;4.70;99.90;;;;;;5092171;28;20306;-56
2022/01/31 00:12:05;;;;;;;;;;;4.80;99.90;;;;;;5091713;28;19919;-56
2022/01/31 00:16:59;;;;;;;;;;;4.80;99.90;;;;;;5092271;28;19904;-56
2022/01/31 00:19:25;;;;;;;;;;;4.80;99.90;;;;;;5092245;28;19927;-56
2022/01/31 00:21:50;;;;;;;;;;;4.80;99.90;;;;;;5091253;28;20266;-56
2022/01/31 00:24:15;;;;;;;;;;;4.80;99.90;;;;;;5091412;28;19914;-56
2022/01/31 00:26:41;;;;;;;;;;;4.80;99.90;;;;;;5091700;28;19955;-56
2022/01/31 00:29:07;;;;;;;;;;;4.80;99.90;;;;;;5091090;28;19904;-56
2022/01/31 00:31:32;;;;;;;;;;;4.80;99.90;;;;;;5091896;28;20526;-56
2022/01/31 00:33:58;;;;;;;;;;;4.80;99.90;;;;;;5091475;28;19931;-56
2022/01/31 00:36:23;;;;;;;;;;;4.80;99.90;;;;;;5091099;28;19904;-56
2022/01/31 00:38:49;;;;;;;;;;;4.80;99.90;;;;;;5092396;28;20351;-56
2022/01/31 00:41:14;;;;;;;;;;;4.80;99.90;;;;;;5095122;28;19908;-56
2022/01/31 00:43:40;;;;;;;;;;;4.80;99.90;;;;;;5095505;28;19907;-56
2022/01/31 00:46:12;;;;;;;;;;;4.80;99.90;;;;;;5095487;28;19912;-55
2022/01/31 00:48:44;;;;;;;;;;;4.80;99.90;;;;;;5095208;28;20010;-56
2022/01/31 00:51:10;;;;;;;;;;;4.80;99.90;;;;;;5095802;28;19911;-56
2022/01/31 00:53:35;;;;;;;;;;;4.80;99.90;;;;;;5095509;28;19908;-56
2022/01/31 00:56:01;;;;;;;;;;;4.80;99.90;;;;;;5094774;28;20346;-56
2022/01/31 00:58:26;;;;;;;;;;;4.80;99.90;;;;;;5095726;28;19933;-56
2022/01/31 01:00:52;;;;;;;;;;;4.80;99.90;;;;;;5094873;28;19915;-56
2022/01/31 01:03:17;;;;;;;;;;;4.80;99.90;;;;;;5094680;28;19904;-56
2022/01/31 01:05:42;;;;;;;;;;;4.80;99.90;;;;;;5095590;28;20002;-56
2022/01/31 01:08:08;;;;;;;;;;;4.80;99.90;;;;;;5095106;28;19904;-56
2022/01/31 01:10:33;;;;;;;;;;;4.80;99.90;;;;;;5094718;28;19914;-55
2022/01/31 01:12:59;;;;;;;;;;;4.80;99.90;;;;;;5095156;28;19904;-56
2022/01/31 01:15:24;;;;;;;;;;;4.80;99.90;;;;;;5095054;28;19908;-56
2022/01/31 01:17:50;;;;;;;;;;;4.80;99.90;;;;;;5094603;28;19939;-56
2022/01/31 01:20:16;;;;;;;;;;;4.80;99.90;;;;;;5094811;28;19908;-56
2022/01/31 01:22:42;;;;;;;;;;;4.80;99.90;;;;;;5095469;28;19904;-55
2022/01/31 01:25:08;;;;;;;;;;;4.80;99.90;;;;;;5094185;28;20003;-56
2022/01/31 01:27:34;;;;;;;;;;;4.80;99.90;;;;;;5094702;28;19916;-56
2022/01/31 01:29:59;;;;;;;;;;;4.80;99.90;;;;;;5094678;28;20378;-56
2022/01/31 01:32:27;;;;;;;;;;;4.70;99.90;;;;;;5094318;28;19904;-56
2022/01/31 01:34:53;;;;;;;;;;;4.70;99.90;;;;;;5094818;28;19904;-56
2022/01/31 01:37:19;;;;;;;;;;;4.60;99.90;;;;;;5094841;28;19927;-56
2022/01/31 01:39:46;;;;;;;;;;;4.60;99.90;;;;;;5093875;28;20374;-56
2022/01/31 01:42:11;;;;;;;;;;;4.60;99.90;;;;;;5094634;28;20200;-56
2022/01/31 01:44:50;;;;;;;;;;;4.60;99.90;;;;;;5093795;28;20476;-56
2022/01/31 01:47:17;;;;;;;;;;;4.50;99.90;;;;;;5094611;28;19904;-56
2022/01/31 01:49:42;;;;;;;;;;;4.50;99.90;;;;;;5093874;28;20363;-57
2022/01/31 01:52:08;;;;;;;;;;;4.40;99.90;;;;;;5093763;28;19911;-56
2022/01/31 01:54:33;;;;;;;;;;;4.30;99.90;;;;;;5094558;28;19943;-56
2022/01/31 01:56:59;;;;;;;;;;;4.30;99.90;;;;;;5094158;28;19908;-56
2022/01/31 01:59:25;;;;;;;;;;;4.30;99.90;;;;;;5093835;28;20380;-57
2022/01/31 02:01:50;;;;;;;;;;;4.30;99.90;;;;;;5094289;28;19912;-56
2022/01/31 02:04:16;;;;;;;;;;;4.20;99.90;;;;;;5094289;28;19949;-56
2022/01/31 02:06:42;;;;;;;;;;;4.20;99.90;;;;;;5093152;28;19912;-57
2022/01/31 02:09:08;;;;;;;;;;;4.10;99.90;;;;;;5094270;28;19998;-56
2022/01/31 02:11:33;;;;;;;;;;;4.10;99.90;;;;;;5094022;28;20009;-56
2022/01/31 02:13:59;;;;;;;;;;;4.00;99.90;;;;;;5093127;28;19904;-56
2022/01/31 02:16:24;;;;;;;;;;;3.90;99.90;;;;;;5094136;28;19908;-56
2022/01/31 02:18:50;;;;;;;;;;;3.90;99.90;;;;;;5094252;28;19996;-55
2022/01/31 02:21:16;;;;;;;;;;;3.80;99.90;;;;;;5093171;28;19911;-56
2022/01/31 02:23:42;;;;;;;;;;;3.80;99.90;;;;;;5093807;28;19910;-55
2022/01/31 02:26:08;;;;;;;;;;;3.80;99.90;;;;;;5093750;28;19919;-56
2022/01/31 02:28:34;;;;;;;;;;;3.70;99.90;;;;;;5092693;28;19923;-56
2022/01/31 02:31:01;;;;;;;;;;;3.70;99.90;;;;;;5093822;28;19995;-56
2022/01/31 02:33:27;;;;;;;;;;;3.70;99.90;;;;;;5093948;28;19904;-55
2022/01/31 02:35:54;;;;;;;;;;;3.70;99.90;;;;;;5092783;28;19904;-56
2022/01/31 02:38:20;;;;;;;;;;;3.70;99.90;;;;;;5093599;28;19919;-56
2022/01/31 02:40:45;;;;;;;;;;;3.70;99.90;;;;;;5093428;28;19986;-56
2022/01/31 02:43:12;;;;;;;;;;;3.70;99.90;;;;;;5093124;28;19969;-56
2022/01/31 02:45:38;;;;;;;;;;;3.80;99.90;;;;;;5093460;28;19916;-56
2022/01/31 02:48:04;;;;;;;;;;;3.70;99.90;;;;;;5092341;28;19908;-56
2022/01/31 02:50:29;;;;;;;;;;;3.80;99.90;;;;;;5093598;28;19916;-56
2022/01/31 02:53:22;;;;;;;;;;;3.80;99.90;;;;;;5093053;28;19904;-56
2022/01/31 02:55:45;;;;;;;;;;;3.80;99.90;;;;;;5091643;28;19915;-56
2022/01/31 02:58:11;;;;;;;;;;;3.80;99.90;;;;;;5093198;28;19907;-56
2022/01/31 03:00:37;;;;;;;;;;;3.90;99.90;;;;;;5093310;28;20353;-56
2022/01/31 03:03:03;;;;;;;;;;;3.80;99.90;;;;;;5091530;28;19999;-56
2022/01/31 03:05:28;;;;;;;;;;;3.80;99.90;;;;;;5092896;28;19923;-56
2022/01/31 03:07:54;;;;;;;;;;;3.80;99.90;;;;;;5092753;28;20317;-57
2022/01/31 03:10:19;;;;;;;;;;;3.80;99.90;;;;;;5092634;28;19994;-57
2022/01/31 03:12:45;;;;;;;;;;;3.80;99.90;;;;;;5093070;28;20369;-56
2022/01/31 03:15:10;;;;;;;;;;;3.80;99.90;;;;;;5092501;28;20371;-56
2022/01/31 03:17:37;;;;;;;;;;;3.80;99.90;;;;;;5092263;28;19904;-56
2022/01/31 03:20:03;;;;;;;;;;;3.70;99.90;;;;;;5082975;28;19999;-56
2022/01/31 03:22:30;;;;;;;;;;;3.70;99.90;;;;;;5072641;28;19954;-56
2022/01/31 03:24:55;;;;;;;;;;;3.70;99.90;;;;;;5081005;28;19950;-57
2022/01/31 03:27:21;;;;;;;;;;;3.70;99.90;;;;;;5082014;28;19916;-54
2022/01/31 03:29:46;;;;;;;;;;;3.70;99.90;;;;;;5073404;28;19912;-55
2022/01/31 03:32:12;;;;;;;;;;;3.70;99.90;;;;;;5071523;28;19904;-49
2022/01/31 03:34:37;;;;;;;;;;;3.70;99.90;;;;;;5077753;28;19908;-47
2022/01/31 03:37:03;;;;;;;;;;;3.80;99.90;;;;;;5091626;28;19987;-52
2022/01/31 03:39:28;;;;;;;;;;;3.80;99.90;;;;;;5092768;28;20366;-48
2022/01/31 03:41:53;;;;;;;;;;;3.80;99.90;;;;;;5092388;28;19958;-47
2022/01/31 03:44:19;;;;;;;;;;;3.90;99.90;;;;;;5091346;28;19953;-49
2022/01/31 03:46:44;;;;;;;;;;;3.90;99.90;;;;;;5092497;28;19920;-47
2022/01/31 03:49:10;;;;;;;;;;;4.00;99.90;;;;;;5092407;28;19904;-49
2022/01/31 03:51:35;;;;;;;;;;;4.00;99.90;;;;;;5091693;28;20332;-46
2022/01/31 03:54:03;;;;;;;;;;;4.20;99.90;;;;;;5091454;28;19912;-47
2022/01/31 03:56:28;;;;;;;;;;;4.30;99.90;;;;;;5092482;28;19904;-47
2022/01/31 03:58:54;;;;;;;;;;;4.30;99.90;;;;;;5091328;28;19957;-47
2022/01/31 04:01:21;;;;;;;;;;;4.40;99.90;;;;;;5092486;28;20346;-50
2022/01/31 04:03:47;;;;;;;;;;;4.40;99.90;;;;;;5091932;28;20329;-48
2022/01/31 04:06:12;;;;;;;;;;;4.50;99.90;;;;;;5091377;28;19916;-47
2022/01/31 04:08:38;;;;;;;;;;;4.60;99.90;;;;;;5092371;28;20402;-50
2022/01/31 04:11:03;;;;;;;;;;;4.70;99.90;;;;;;5091866;28;20295;-49
2022/01/31 04:13:29;;;;;;;;;;;4.80;99.90;;;;;;5090958;28;19915;-49
2022/01/31 04:15:54;;;;;;;;;;;4.90;99.90;;;;;;5091926;28;19904;-49
2022/01/31 04:18:20;;;;;;;;;;;4.90;99.90;;;;;;5092141;28;19961;-48
2022/01/31 04:20:45;;;;;;;;;;;5.00;99.90;;;;;;5091488;28;20278;-48
2022/01/31 04:23:13;;;;;;;;;;;5.10;99.90;;;;;;5091478;28;20041;-51
2022/01/31 04:25:53;;;;;;;;;;;5.30;99.90;;;;;;5092081;28;19923;-51
2022/01/31 04:28:26;;;;;;;;;;;5.50;99.90;;;;;;5091040;28;20286;-52
2022/01/31 04:30:58;;;;;;;;;;;5.60;99.90;;;;;;5092070;28;19951;-56
2022/01/31 04:33:25;;;;;;;;;;;5.80;99.90;;;;;;5091054;28;19903;-57
2022/01/31 04:35:50;;;;;;;;;;;5.80;99.90;;;;;;5091820;28;19938;-57
2022/01/31 04:38:17;;;;;;;;;;;5.80;99.90;;;;;;5091857;28;19904;-58
2022/01/31 04:40:43;;;;;;;;;;;5.80;99.90;;;;;;5091061;28;19911;-57
2022/01/31 04:43:09;;;;;;;;;;;5.70;99.90;;;;;;5091115;28;19908;-58
2022/01/31 04:45:35;;;;;;;;;;;5.60;99.90;;;;;;5091688;28;20339;-58
2022/01/31 04:48:00;;;;;;;;;;;5.50;99.90;;;;;;5090945;28;19904;-57
2022/01/31 04:50:26;;;;;;;;;;;5.40;99.90;;;;;;5091828;28;19904;-58
2022/01/31 04:52:51;;;;;;;;;;;5.40;99.90;;;;;;5091345;28;19951;-60
2022/01/31 04:55:17;;;;;;;;;;;5.40;99.90;;;;;;5072944;28;20382;-57
2022/01/31 04:57:42;;;;;;;;;;;5.40;99.90;;;;;;5091831;28;20363;-57
2022/01/31 05:00:08;;;;;;;;;;;5.50;99.90;;;;;;5091360;28;19904;-59
2022/01/31 05:02:34;;;;;;;;;;;5.60;99.90;;;;;;5090483;28;19911;-58
2022/01/31 05:05:00;;;;;;;;;;;5.60;99.90;;;;;;5091433;28;19908;-59
2022/01/31 05:07:25;;;;;;;;;;;5.60;99.90;;;;;;5091792;28;19904;-59
2022/01/31 05:09:51;;;;;;;;;;;5.60;99.90;;;;;;5090746;28;19904;-59
2022/01/31 05:12:16;;;;;;;;;;;5.60;99.90;;;;;;5091714;28;19908;-58
2022/01/31 05:14:42;;;;;;;;;;;5.50;99.90;;;;;;5091449;28;19904;-58
2022/01/31 05:17:07;;;;;;;;;;;5.60;99.90;;;;;;5090768;28;19957;-58
2022/01/31 05:19:33;;;;;;;;;;;5.60;99.90;;;;;;5091611;28;19939;-57
2022/01/31 05:21:58;;;;;;;;;;;5.60;99.90;;;;;;5090917;28;19903;-58
2022/01/31 05:24:24;;;;;;;;;;;5.70;99.90;;;;;;5090770;28;19908;-57
2022/01/31 05:26:51;;;;;;;;;;;5.60;99.90;;;;;;5094401;28;19930;-57
2022/01/31 05:29:17;;;;;;;;;;;5.60;99.90;;;;;;5095002;28;19904;-56
2022/01/31 05:31:42;;;;;;;;;;;5.60;99.90;;;;;;5094391;28;19904;-56
2022/01/31 05:34:07;;;;;;;;;;;5.70;99.90;;;;;;5094825;28;19911;-56
2022/01/31 05:36:33;;;;;;;;;;;5.70;99.90;;;;;;5094599;28;19969;-54
2022/01/31 05:38:58;;;;;;;;;;;5.70;99.90;;;;;;5093448;28;19908;-55
2022/01/31 05:41:24;;;;;;;;;;;5.80;99.90;;;;;;5094985;28;19904;-57
2022/01/31 05:43:49;;;;;;;;;;;5.70;99.90;;;;;;5093807;28;19999;-55
2022/01/31 05:46:15;;;;;;;;;;;5.70;99.90;;;;;;5094260;28;19920;-56
2022/01/31 05:48:41;;;;;;;;;;;5.70;99.90;;;;;;5094862;28;19930;-57
2022/01/31 05:51:11;;;;;;;;;;;5.60;99.90;;;;;;5093809;28;19904;-59
2022/01/31 05:53:36;;;;;;;;;;;5.40;99.90;;;;;;5094675;28;19911;-57
2022/01/31 05:56:02;;;;;;;;;;;5.40;99.90;;;;;;5093985;28;19904;-56
2022/01/31 05:58:27;;;;;;;;;;;5.30;99.90;;;;;;5093620;28;19911;-57
2022/01/31 06:00:53;;;;;;;;;;;5.20;99.90;;;;;;5094388;28;19911;-58
2022/01/31 06:03:18;;;;;;;;;;;5.10;99.90;;;;;;5094167;28;19907;-57
2022/01/31 06:05:44;;;;;;;;;;;5.10;99.90;;;;;;5093705;28;19958;-60
2022/01/31 06:08:09;;;;;;;;;;;5.10;99.90;;;;;;5094116;28;20362;-57
2022/01/31 06:10:41;;;;;;;;;;;5.10;99.90;;;;;;5094420;28;20381;-57
2022/01/31 06:13:07;;;;;;;;;;;5.00;99.90;;;;;;5092820;28;19951;-58
2022/01/31 06:15:32;;;;;;;;;;;5.00;99.90;;;;;;5094316;28;20435;-59
2022/01/31 06:17:58;;;;;;;;;;;5.00;99.90;;;;;;5094041;28;20003;-58
2022/01/31 06:20:23;;;;;;;;;;;5.00;99.90;;;;;;5093453;28;19949;-59
2022/01/31 06:22:50;;;;;;;;;;;5.00;99.90;;;;;;5093868;28;19908;-61
2022/01/31 06:25:16;;;;;;;;;;;5.00;99.90;;;;;;5093896;28;19916;-58
2022/01/31 06:27:42;;;;;;;;;;;5.00;99.90;;;;;;5093218;28;19916;-59
2022/01/31 06:30:08;;;;;;;;;;;5.00;99.90;;;;;;5093374;28;19920;-58
2022/01/31 06:32:34;;;;;;;;;;;5.00;99.90;;;;;;5093470;28;19908;-60
2022/01/31 06:34:59;;;;;;;;;;;5.00;99.90;;;;;;5092876;28;19904;-59
2022/01/31 06:37:25;;;;;;;;;;;5.00;99.90;;;;;;5093850;28;19953;-57
2022/01/31 06:39:50;;;;;;;;;;;5.00;99.90;;;;;;5093756;28;19904;-56
2022/01/31 06:42:16;;;;;;;;;;;5.00;99.90;;;;;;5092345;28;19965;-57
2022/01/31 06:44:42;;;;;;;;;;;5.00;99.90;;;;;;5093480;28;20371;-58
2022/01/31 06:47:07;;;;;;;;;;;5.00;99.90;;;;;;5092540;28;19919;-58
2022/01/31 06:49:32;;;;;;;;;;;5.10;99.90;;;;;;5093602;28;19911;-59
2022/01/31 06:51:58;;;;;;;;;;;5.10;99.90;;;;;;5092943;28;19911;-59
2022/01/31 06:54:23;;;;;;;;;;;5.20;99.90;;;;;;5092831;28;20010;-59
2022/01/31 06:56:49;;;;;;;;;;;5.20;99.90;;;;;;5093381;28;19911;-59
2022/01/31 06:59:14;;;;;;;;;;;5.30;99.90;;;;;;5093238;28;19904;-58
2022/01/31 07:01:40;;;;;;;;;;;5.30;99.90;;;;;;5092255;28;19961;-58
2022/01/31 07:04:05;;;;;;;;;;;5.30;99.90;;;;;;5093151;28;20362;-58
2022/01/31 07:06:31;;;;;;;;;;;5.30;99.90;;;;;;5092832;28;19935;-58
2022/01/31 07:08:58;;;;;;;;;;;5.40;99.90;;;;;;5092212;28;19908;-59
2022/01/31 07:11:27;;;;;;;;;;;5.40;99.90;;;;;;5092917;28;19912;-56
2022/01/31 07:14:02;;;;;;;;;;;5.50;99.90;;;;;;5092668;28;19908;-57
2022/01/31 07:16:27;;;;;;;;;;;5.50;99.90;;;;;;5092491;28;19911;-58
2022/01/31 07:18:59;;;;;;;;;;;5.50;99.90;;;;;;5092764;28;19904;-58
2022/01/31 07:21:32;;;;;;;;;;;5.50;99.90;;;;;;5092344;28;19907;-59
2022/01/31 07:26:43;;;;;;;;;;;5.50;99.90;;;;;;5082004;28;19916;-59
2022/01/31 07:29:09;;;;;;;;;;;5.50;99.90;;;;;;5091757;28;19916;-60
2022/01/31 07:31:35;;;;;;;;;;;5.50;99.90;;;;;;5092838;28;19907;-59
2022/01/31 07:34:00;;;;;;;;;;;5.50;99.90;;;;;;5092298;28;19904;-58
2022/01/31 07:36:26;;;;;;;;;;;5.50;99.90;;;;;;5091940;28;19904;-58
2022/01/31 07:38:51;;;;;;;;;;;5.50;99.90;;;;;;5083297;28;19904;-59
2022/01/31 07:41:17;;;;;;;;;;;5.50;99.90;;;;;;5091931;28;20016;-59
2022/01/31 07:43:44;;;;;;;;;;;5.50;99.90;;;;;;5091655;28;19948;-59
2022/01/31 07:46:12;;;;;;;;;;;5.50;99.90;;;;;;5092370;28;19912;-59
2022/01/31 07:48:38;;;;;;;;;;;5.40;99.90;;;;;;5072153;28;19987;-58
2022/01/31 07:51:03;;;;;;;;;;;5.50;99.90;;;;;;5071218;28;20015;-59
2022/01/31 07:53:29;;;;;;;;;;;5.50;99.90;;;;;;5072163;28;19948;-59
2022/01/31 07:55:54;;;;;;;;;;;5.40;99.90;;;;;;5086215;28;19904;-59
2022/01/31 07:58:20;;;;;;;;;;;5.40;99.90;;;;;;5090939;28;19961;-58
2022/01/31 08:00:45;;;;;;;;;;;5.40;99.90;;;;;;5091547;28;19912;-60
2022/01/31 08:03:11;;;;;;;;;;;5.40;99.90;;;;;;5091971;28;19916;-59
2022/01/31 08:05:36;;;;;;;;;;;5.40;99.90;;;;;;5091331;28;19915;-59
2022/01/31 08:08:02;;;;;;;;;;;5.40;99.90;;;;;;5075540;28;20291;-59
2022/01/31 08:10:27;;;;;;;;;;;5.50;99.90;;;;;;5072048;28;19911;-59
2022/01/31 08:12:55;;;;;;;;;;;5.50;99.90;;;;;;5070743;28;20632;-59
2022/01/31 08:15:25;;;;;;;;;;;5.50;99.90;;;;;;5072147;28;19904;-59
2022/01/31 08:17:51;;;;;;;;;;;5.50;99.90;;;;;;5071836;28;19905;-59
2022/01/31 08:20:16;;;;;;;;;;;5.50;99.90;;;;;;5088040;28;20322;-61
2022/01/31 08:22:42;;;;;;;;;;;5.60;99.90;;;;;;5092016;28;19911;-59
2022/01/31 08:25:13;;;;;;;;;;;5.60;99.90;;;;;;5091424;28;19904;-57
2022/01/31 08:27:41;;;;;;;;;;;5.60;99.90;;;;;;5091034;28;20010;-58
2022/01/31 08:30:11;;;;;;;;;;;5.60;99.90;;;;;;5091655;28;19904;-58
2022/01/31 08:32:44;;;;;;;;;;;5.60;99.90;;;;;;5091162;28;19950;-58
2022/01/31 08:37:54;;;;;;;;;;;5.70;99.90;;;;;;5091723;28;20006;-58
2022/01/31 08:40:20;;;;;;;;;;;5.80;99.90;;;;;;5091302;28;19986;-59
2022/01/31 08:42:46;;;;;;;;;;;5.80;99.90;;;;;;5091877;28;19916;-59
2022/01/31 08:45:11;;;;;;;;;;;5.90;99.90;;;;;;5091425;28;19908;-59
2022/01/31 08:47:41;;;;;;;;;;;5.90;99.90;;;;;;5091155;28;20377;-59
2022/01/31 08:50:07;;;;;;;;;;;5.90;99.90;;;;;;5091674;28;19962;-60
2022/01/31 08:52:33;;;;;;;;;;;6.00;99.90;;;;;;5091689;28;19904;-60
2022/01/31 08:54:58;;;;;;;;;;;6.10;99.90;;;;;;5090126;28;19915;-59
2022/01/31 08:57:23;;;;;;;;;;;6.10;99.90;;;;;;5092134;28;19903;-59
2022/01/31 08:59:51;;;;;;;;;;;6.10;99.90;;;;;;5085089;28;19904;-60
2022/01/31 09:02:18;;;;;;;;;;;6.20;99.90;;;;;;5074731;28;19995;-59
2022/01/31 09:04:50;;;;;;;;;;;6.30;99.90;;;;;;5075175;28;19905;-59
2022/01/31 09:07:16;;;;;;;;;;;6.30;99.90;;;;;;5074860;28;19916;-59
2022/01/31 09:09:42;;;;;;;;;;;6.30;99.90;;;;;;5074572;28;20005;-59
2022/01/31 09:12:09;;;;;;;;;;;6.30;99.90;;;;;;5082879;28;19908;-59
2022/01/31 09:14:35;;;;;;;;;;;6.40;99.90;;;;;;5095238;28;20355;-59
2022/01/31 09:17:01;;;;;;;;;;;6.40;99.90;;;;;;5094592;28;19904;-60
2022/01/31 09:19:26;;;;;;;;;;;6.40;99.90;;;;;;5095298;28;20351;-60
2022/01/31 09:21:52;;;;;;;;;;;6.50;99.90;;;;;;5094177;28;19957;-61
2022/01/31 09:24:18;;;;;;;;;;;6.50;99.90;;;;;;5095412;28;19904;-60
2022/01/31 09:26:43;;;;;;;;;;;6.50;99.90;;;;;;5095064;28;19912;-60
2022/01/31 09:29:09;;;;;;;;;;;6.50;99.90;;;;;;5094007;28;19958;-60
2022/01/31 09:31:35;;;;;;;;;;;6.50;99.90;;;;;;5095142;28;19940;-60
2022/01/31 09:34:01;;;;;;;;;;;6.50;99.90;;;;;;5094670;28;19951;-60
2022/01/31 09:36:27;;;;;;;;;;;6.50;99.90;;;;;;5094280;28;19904;-60
2022/01/31 09:38:53;;;;;;;;;;;6.60;99.90;;;;;;5094749;28;19908;-60
2022/01/31 09:41:22;;;;;;;;;;;6.70;99.90;;;;;;5094942;28;19972;-60
2022/01/31 09:44:05;;;;;;;;;;;6.80;99.90;;;;;;5092605;28;19908;-60
2022/01/31 09:46:46;;;;;;;;;;;6.80;99.90;;;;;;5074659;28;19924;-60
2022/01/31 09:49:11;;;;;;;;;;;6.80;99.90;;;;;;5084863;28;20410;-60
2022/01/31 09:51:37;;;;;;;;;;;6.80;99.90;;;;;;5093906;28;19911;-60
2022/01/31 09:54:03;;;;;;;;;;;6.90;99.90;;;;;;5094352;28;20048;-60
2022/01/31 09:56:32;;;;;;;;;;;6.90;99.90;;;;;;5094651;28;19910;-60
2022/01/31 09:58:59;;;;;;;;;;;7.00;99.90;;;;;;5093510;28;19904;-60
2022/01/31 10:01:28;;;;;;;;;;;7.20;99.90;;;;;;5083913;28;19911;-59
2022/01/31 10:03:56;;;;;;;;;;;7.10;99.90;;;;;;5073636;28;19904;-60
2022/01/31 10:06:24;;;;;;;;;;;7.20;99.90;;;;;;5092364;28;20370;-60
2022/01/31 10:09:09;;;;;;;;;;;7.10;99.90;;;;;;5093691;28;19931;-60
2022/01/31 10:11:47;;;;;;;;;;;7.10;99.90;;;;;;5092100;28;19908;-59
2022/01/31 10:17:01;;;;;;;;;;;7.00;99.90;;;;;;5094110;28;19911;-60
2022/01/31 10:19:26;;;;;;;;;;;7.00;99.90;;;;;;5074897;28;19905;-59
2022/01/31 10:22:00;;;;;;;;;;;7.00;99.90;;;;;;5073315;28;19957;-59
2022/01/31 10:24:26;;;;;;;;;;;7.00;99.90;;;;;;5073754;28;19908;-59
2022/01/31 10:26:52;;;;;;;;;;;7.00;99.90;;;;;;5068436;28;20352;-59
2022/01/31 10:29:19;;;;;;;;;;;7.00;99.90;;;;;;5072757;28;19904;-59
2022/01/31 10:31:53;;;;;;;;;;;7.10;99.90;;;;;;5091504;28;20416;-59
2022/01/31 10:34:20;;;;;;;;;;;7.20;99.90;;;;;;5092416;28;19904;-59
2022/01/31 10:36:46;;;;;;;;;;;7.30;99.90;;;;;;5093286;28;19957;-59
2022/01/31 10:43:23;;;;;;;;;;;7.30;99.90;;;;;;5092427;28;20366;-59
2022/01/31 10:53:39;;;;;;;;;;;7.70;99.90;;;;;;5071253;28;20299;-60
2022/01/31 10:56:05;;;;;;;;;;;7.70;99.90;;;;;;5071850;28;19904;-59
2022/01/31 10:58:30;;;;;;;;;;;7.60;99.90;;;;;;5071488;28;20275;-60
2022/01/31 11:01:10;;;;;;;;;;;7.60;99.90;;;;;;5071661;28;19992;-60
2022/01/31 11:03:36;;;;;;;;;;;7.60;99.90;;;;;;5072277;28;19924;-60
2022/01/31 11:06:05;;;;;;;;;;;7.60;99.90;;;;;;5072239;28;19912;-59
2022/01/31 11:08:30;;;;;;;;;;;7.60;99.90;;;;;;5071593;28;19911;-59
2022/01/31 11:10:57;;;;;;;;;;;7.60;99.90;;;;;;5080786;28;19908;-59
2022/01/31 11:13:25;;;;;;;;;;;7.60;99.90;;;;;;5089006;28;19904;-59
2022/01/31 11:15:51;;;;;;;;;;;7.70;99.90;;;;;;5077391;28;19945;-59
2022/01/31 11:18:16;;;;;;;;;;;7.80;99.90;;;;;;5092733;28;19954;-59
2022/01/31 11:20:44;;;;;;;;;;;7.80;99.90;;;;;;5092574;28;20301;-59
2022/01/31 11:23:09;;;;;;;;;;;7.90;99.90;;;;;;5090443;28;19950;-59
2022/01/31 11:25:38;;;;;;;;;;;7.90;99.90;;;;;;5092388;28;19912;-59
2022/01/31 11:28:05;;;;;;;;;;;8.00;99.90;;;;;;5091119;28;20011;-60
2022/01/31 11:30:31;;;;;;;;;;;8.10;99.90;;;;;;5091684;28;19904;-60
2022/01/31 11:32:56;;;;;;;;;;;8.20;99.90;;;;;;5078001;28;19920;-60
2022/01/31 11:35:22;;;;;;;;;;;8.40;99.90;;;;;;5071681;28;19904;-60
2022/01/31 11:37:48;;;;;;;;;;;8.40;99.90;;;;;;5072117;28;19908;-60
2022/01/31 11:40:15;;;;;;;;;;;8.60;99.90;;;;;;5071744;28;19939;-59
2022/01/31 11:42:41;;;;;;;;;;;8.70;99.90;;;;;;5071465;28;19939;-60
2022/01/31 11:45:13;;;;;;;;;;;8.80;99.90;;;;;;5071686;28;20290;-60
2022/01/31 11:47:38;;;;;;;;;;;9.00;99.90;;;;;;5072137;28;19904;-60
2022/01/31 11:50:05;;;;;;;;;;;9.00;99.90;;;;;;5071261;28;19911;-60
2022/01/31 11:52:32;;;;;;;;;;;9.10;99.90;;;;;;5071697;28;19904;-60
2022/01/31 11:55:02;;;;;;;;;;;9.10;99.90;;;;;;5071796;28;19918;-60
2022/01/31 11:57:29;;;;;;;;;;;9.20;99.90;;;;;;5071484;28;19904;-60
2022/01/31 11:59:54;;;;;;;;;;;9.20;99.90;;;;;;5071678;28;20386;-60
2022/01/31 12:02:21;;;;;;;;;;;9.20;99.90;;;;;;5072110;28;19931;-60
2022/01/31 12:04:49;;;;;;;;;;;9.20;99.90;;;;;;5071026;28;19915;-60
2022/01/31 12:07:31;;;;;;;;;;;9.10;99.90;;;;;;5080854;28;19912;-60
2022/01/31 12:09:58;;;;;;;;;;;9.10;99.90;;;;;;5092131;28;20389;-60
2022/01/31 12:12:35;;;;;;;;;;;9.00;99.90;;;;;;5092261;28;20350;-60
2022/01/31 12:15:22;;;;;;;;;;;9.00;99.90;;;;;;5092589;28;19904;-61
2022/01/31 12:18:28;;;;;;;;;;;8.90;99.90;;;;;;5091147;28;19910;-60
2022/01/31 12:23:37;;;;;;;;;;;9.10;99.90;;;;;;5092368;28;19915;-60
2022/01/31 12:26:03;;;;;;;;;;;9.30;99.90;;;;;;5090876;28;19915;-60
2022/01/31 12:28:43;;;;;;;;;;;9.50;99.90;;;;;;5091551;28;19916;-60
2022/01/31 12:31:27;;;;;;;;;;;9.60;99.90;;;;;;5090450;28;20278;-60
2022/01/31 12:33:53;;;;;;;;;;;9.60;99.90;;;;;;5090087;28;19955;-61
2022/01/31 12:36:36;;;;;;;;;;;9.60;99.90;;;;;;5094897;28;20456;-61
2022/01/31 12:39:20;;;;;;;;;;;9.50;99.90;;;;;;5095005;28;19904;-61
2022/01/31 12:41:46;;;;;;;;;;;9.40;99.90;;;;;;5095446;28;20417;-60
2022/01/31 12:44:31;;;;;;;;;;;9.30;99.90;;;;;;5084547;28;19912;-60
2022/01/31 12:47:07;;;;;;;;;;;9.20;99.90;;;;;;5056732;28;20383;-60
2022/01/31 12:49:32;;;;;;;;;;;9.10;99.90;;;;;;5095817;28;20359;-60
2022/01/31 12:52:03;;;;;;;;;;;9.00;99.90;;;;;;5095274;28;19904;-60
2022/01/31 12:54:29;;;;;;;;;;;9.00;99.90;;;;;;5095014;28;19957;-60
2022/01/31 12:56:54;;;;;;;;;;;8.90;99.90;;;;;;5095413;28;19904;-61
2022/01/31 12:59:20;;;;;;;;;;;8.90;99.90;;;;;;5093636;28;19990;-61
2022/01/31 13:01:46;;;;;;;;;;;8.90;99.90;;;;;;5074427;28;19931;-60
2022/01/31 13:04:22;;;;;;;;;;;8.80;99.90;;;;;;5075344;28;19977;-60
2022/01/31 13:07:09;;;;;;;;;;;8.80;99.90;;;;;;5074306;28;19913;-60
2022/01/31 13:09:38;;;;;;;;;;;8.70;99.90;;;;;;5085934;28;20422;-61
2022/01/31 13:12:05;;;;;;;;;;;8.70;99.90;;;;;;5095306;28;20028;-61
2022/01/31 13:14:36;;;;;;;;;;;8.70;99.90;;;;;;5094751;28;19911;-60
2022/01/31 13:17:08;;;;;;;;;;;8.70;99.90;;;;;;5095076;28;19911;-60
2022/01/31 13:19:38;;;;;;;;;;;8.70;99.90;;;;;;5095447;28;20257;-60
2022/01/31 13:22:09;;;;;;;;;;;8.80;99.90;;;;;;5094083;28;19914;-60
2022/01/31 13:24:41;;;;;;;;;;;8.80;99.90;;;;;;5095026;28;20385;-60
2022/01/31 13:27:08;;;;;;;;;;;8.90;99.90;;;;;;5094466;28;20304;-60
2022/01/31 13:29:36;;;;;;;;;;;8.90;99.90;;;;;;5093022;28;19938;-61
2022/01/31 13:32:14;;;;;;;;;;;8.90;99.90;;;;;;5094615;28;19932;-60
2022/01/31 13:34:41;;;;;;;;;;;8.90;99.90;;;;;;5094778;28;20384;-60
2022/01/31 13:37:25;;;;;;;;;;;8.90;99.90;;;;;;5092258;28;20377;-60
2022/01/31 13:39:52;;;;;;;;;;;8.90;99.90;;;;;;5091961;28;19998;-60
2022/01/31 13:42:27;;;;;;;;;;;8.90;99.90;;;;;;5093457;28;19924;-60
2022/01/31 13:44:55;;;;;;;;;;;8.80;99.90;;;;;;5094280;28;19904;-62
2022/01/31 13:47:42;;;;;;;;;;;8.70;99.90;;;;;;5093963;28;20355;-61
2022/01/31 13:50:15;;;;;;;;;;;8.50;99.90;;;;;;5093834;28;20366;-61
2022/01/31 13:52:54;;;;;;;;;;;8.30;99.90;;;;;;5094213;28;19911;-61
2022/01/31 13:55:20;;;;;;;;;;;8.20;99.90;;;;;;5094245;28;19908;-62
2022/01/31 13:57:46;;;;;;;;;;;8.20;99.90;;;;;;5075354;28;19958;-61
2022/01/31 14:00:11;;;;;;;;;;;8.20;99.90;;;;;;5078603;28;19961;-62
2022/01/31 14:02:39;;;;;;;;;;;8.20;99.90;;;;;;5094416;28;19904;-62
2022/01/31 14:05:21;;;;;;;;;;;8.20;99.90;;;;;;5085832;28;19908;-62
2022/01/31 14:07:57;;;;;;;;;;;8.30;99.90;;;;;;5093176;28;19920;-62
2022/01/31 14:10:24;;;;;;;;;;;8.40;99.90;;;;;;5093100;28;19915;-63
2022/01/31 14:13:03;;;;;;;;;;;8.50;99.90;;;;;;5093659;28;19965;-62
2022/01/31 14:15:29;;;;;;;;;;;8.50;99.90;;;;;;5093657;28;20002;-61
2022/01/31 14:17:55;;;;;;;;;;;8.50;99.90;;;;;;5092443;28;19991;-62
2022/01/31 14:20:22;;;;;;;;;;;8.40;99.90;;;;;;5093801;28;19910;-63
2022/01/31 14:22:57;;;;;;;;;;;8.40;99.90;;;;;;5093759;28;20018;-62
2022/01/31 14:25:22;;;;;;;;;;;8.40;99.90;;;;;;5090615;28;19908;-61
2022/01/31 14:27:49;;;;;;;;;;;8.30;99.90;;;;;;5091719;28;20401;-61
2022/01/31 14:30:18;;;;;;;;;;;8.30;99.90;;;;;;5093050;28;19903;-60
2022/01/31 14:32:43;;;;;;;;;;;8.40;99.90;;;;;;5093154;28;20371;-61
2022/01/31 14:35:11;;;;;;;;;;;8.30;99.90;;;;;;5093592;28;19943;-60
2022/01/31 14:37:47;;;;;;;;;;;8.30;99.90;;;;;;5093748;28;20358;-62
2022/01/31 14:40:26;;;;;;;;;;;8.30;99.90;;;;;;5093021;28;19904;-61
2022/01/31 14:47:13;;;;;;;;;;;8.30;99.90;;;;;;5093051;28;19972;-60
2022/01/31 14:48:53;;;;;;;;;;;8.20;99.90;;;;;;5093706;28;19915;-61
2022/01/31 14:51:26;;;;;;;;;;;8.20;99.90;;;;;;5093602;28;19912;-60
2022/01/31 14:53:52;;;;;;;;;;;8.20;99.90;;;;;;5092154;28;19905;-60
2022/01/31 14:56:18;;;;;;;;;;;8.10;99.90;;;;;;5093578;28;20097;-60
2022/01/31 14:58:43;;;;;;;;;;;8.10;99.90;;;;;;5074148;28;19915;-60
2022/01/31 15:01:09;;;;;;;;;;;8.00;99.90;;;;;;5092615;28;20007;-61
2022/01/31 15:03:34;;;;;;;;;;;8.00;99.90;;;;;;5092823;28;19948;-61